Time;durP1;ratioP1;P1;durP2;ratioP2;P2;SDS_P1;SDS_P2;PMS_P1;PMS_P2;Temp;Humidity;BMP_temperature;BMP_pressure;BME280_temperature;BME280_humidity;BME280_pressure;Samples;Min_cycle;Max_cycle;Signal;HPM_P1;HPM_P2
2022/10/15 00:00:39;;;;;;;;;;;12.90;99.90;;;;;;4995500;28;20137;-72
2022/10/15 00:03:04;;;;;;;124.22;48.42;;;12.40;99.90;;;;;;4995159;28;19969;-72
2022/10/15 00:05:30;;;;;;;127.03;48.92;;;12.50;99.90;;;;;;4994983;28;20100;-71
2022/10/15 00:07:55;;;;;;;143.77;50.70;;;12.80;99.90;;;;;;4995617;28;20451;-71
2022/10/15 00:10:22;;;;;;;126.38;49.80;;;12.60;99.90;;;;;;4994895;28;20042;-71
2022/10/15 00:12:47;;;;;;;125.40;50.35;;;12.50;99.90;;;;;;4994746;28;20055;-71
2022/10/15 00:15:14;;;;;;;136.45;51.30;;;12.70;99.90;;;;;;4995039;28;20050;-72
2022/10/15 00:17:39;;;;;;;;;;;12.40;99.90;;;;;;4996027;28;20042;-72
2022/10/15 00:20:11;;;;;;;137.27;50.42;;;12.50;99.90;;;;;;4994786;28;19929;-72
2022/10/15 00:22:37;;;;;;;141.30;52.83;;;12.50;99.90;;;;;;4994682;28;20038;-71
2022/10/15 00:25:04;;;;;;;146.63;54.58;;;12.90;99.90;;;;;;4994540;28;20042;-71
2022/10/15 00:27:30;;;;;;;154.63;53.22;;;12.60;99.90;;;;;;4994976;28;20069;-72
2022/10/15 00:29:56;;;;;;;158.57;53.35;;;12.80;99.90;;;;;;4994572;28;20058;-72
2022/10/15 00:32:21;;;;;;;158.75;54.72;;;12.70;99.90;;;;;;4994103;28;20465;-71
2022/10/15 00:34:47;;;;;;;169.02;56.40;;;12.90;99.90;;;;;;4994767;28;20057;-72
2022/10/15 00:37:12;;;;;;;164.75;56.53;;;12.60;99.90;;;;;;4994374;28;20475;-72
2022/10/15 00:39:38;;;;;;;160.13;54.42;;;12.80;99.90;;;;;;4993454;28;20046;-72
2022/10/15 00:42:04;;;;;;;160.70;56.15;;;12.60;99.90;;;;;;4994396;28;20129;-72
2022/10/15 00:44:30;;;;;;;166.65;56.42;;;12.70;99.90;;;;;;4994328;28;20053;-72
2022/10/15 00:46:58;;;;;;;165.00;56.20;;;12.50;99.90;;;;;;4994380;28;20062;-72
2022/10/15 00:49:36;;;;;;;157.15;56.20;;;12.60;99.90;;;;;;5009212;28;20487;-72
2022/10/15 00:52:16;;;;;;;169.32;56.80;;;12.90;99.90;;;;;;4995029;28;20117;-72
2022/10/15 00:54:47;;;;;;;173.68;58.08;;;12.90;99.90;;;;;;4994396;28;20057;-72
2022/10/15 00:57:13;;;;;;;164.35;56.38;;;12.90;99.90;;;;;;4992954;28;20124;-72
2022/10/15 00:59:42;;;;;;;;;;;12.70;99.90;;;;;;4994505;28;20483;-72
2022/10/15 01:02:10;;;;;;;162.68;54.38;;;12.70;99.90;;;;;;4992987;28;19921;-71
2022/10/15 01:04:36;;;;;;;165.82;56.95;;;12.90;99.90;;;;;;4994005;28;20046;-71
2022/10/15 01:07:02;;;;;;;180.45;57.28;;;12.60;99.90;;;;;;4994073;28;20050;-71
2022/10/15 01:09:28;;;;;;;180.48;56.08;;;12.80;99.90;;;;;;4994049;28;20061;-72
2022/10/15 01:11:54;;;;;;;187.18;60.00;;;12.90;99.90;;;;;;4993891;28;20050;-72
2022/10/15 01:14:35;;;;;;;171.70;58.38;;;13.00;99.90;;;;;;4994596;28;20121;-72
2022/10/15 01:17:26;;;;;;;175.75;58.05;;;12.90;99.90;;;;;;4994646;28;20050;-72
2022/10/15 01:20:19;;;;;;;179.38;58.65;;;12.90;99.90;;;;;;4994204;28;20112;-72
2022/10/15 01:23:22;;;;;;;172.52;60.45;;;12.30;99.90;;;;;;4993672;28;20459;-71
2022/10/15 01:25:57;;;;;;;176.15;60.78;;;12.70;99.90;;;;;;4993650;28;20510;-72
2022/10/15 01:28:53;;;;;;;184.13;60.97;;;12.80;99.90;;;;;;4996235;28;20085;-72
2022/10/15 01:31:42;;;;;;;177.40;59.03;;;14.90;99.90;;;;;;4997185;28;20374;-71
2022/10/15 01:34:16;;;;;;;186.63;60.97;;;13.20;99.90;;;;;;4997845;28;20047;-72
2022/10/15 01:36:51;;;;;;;166.35;56.40;;;12.80;99.90;;;;;;4998263;28;20155;-71
2022/10/15 01:40:12;;;;;;;168.90;55.17;;;12.50;99.90;;;;;;4997832;28;20050;-71
2022/10/15 01:42:56;;;;;;;169.30;55.65;;;13.00;99.90;;;;;;4995129;28;20487;-71
2022/10/15 01:45:39;;;;;;;185.65;60.72;;;12.50;99.90;;;;;;4995281;28;20046;-71
2022/10/15 01:48:09;;;;;;;164.45;58.15;;;12.80;99.90;;;;;;4996659;28;20105;-71
2022/10/15 01:50:38;;;;;;;164.32;56.97;;;13.60;99.90;;;;;;4997531;28;20058;-72
2022/10/15 01:53:06;;;;;;;175.45;59.63;;;12.90;99.90;;;;;;4997277;28;20097;-71
2022/10/15 01:55:34;;;;;;;186.05;60.15;;;12.70;99.90;;;;;;4997416;28;20042;-71
2022/10/15 01:58:01;;;;;;;185.18;57.55;;;12.80;99.90;;;;;;4997937;28;20085;-72
2022/10/15 02:00:27;;;;;;;182.90;57.70;;;12.70;99.90;;;;;;4997848;28;20050;-72
2022/10/15 02:02:59;;;;;;;186.70;57.35;;;12.70;99.90;;;;;;4998057;28;20046;-71
2022/10/15 02:05:30;;;;;;;193.55;59.55;;;13.00;99.90;;;;;;4997234;28;20046;-73
2022/10/15 02:08:10;;;;;;;187.38;57.83;;;12.90;99.90;;;;;;4997231;28;20053;-72
2022/10/15 02:10:56;;;;;;;187.95;59.72;;;12.60;99.90;;;;;;4997854;28;20046;-72
2022/10/15 02:14:00;;;;;;;198.88;59.47;;;12.80;99.90;;;;;;4997163;28;20047;-72
2022/10/15 02:16:47;;;;;;;179.20;59.22;;;12.80;99.90;;;;;;5005361;28;20062;-71
2022/10/15 02:19:13;;;;;;;;;;;12.70;99.90;;;;;;4997452;28;20113;-72
2022/10/15 02:21:56;;;;;;;180.32;59.67;;;12.70;99.90;;;;;;5012155;28;19929;-73
2022/10/15 02:24:31;;;;;;;185.85;59.35;;;12.60;99.90;;;;;;4997003;28;20104;-72
2022/10/15 02:26:57;;;;;;;180.93;57.28;;;12.90;99.90;;;;;;4997429;28;20065;-72
2022/10/15 02:29:27;;;;;;;185.05;58.53;;;13.50;99.90;;;;;;4997395;28;20046;-72
2022/10/15 02:31:55;;;;;;;175.43;57.63;;;12.80;99.90;;;;;;4996838;28;20042;-72
2022/10/15 02:34:26;;;;;;;173.93;56.67;;;12.00;99.90;;;;;;4996492;28;20438;-72
2022/10/15 02:36:53;;;;;;;176.18;56.97;;;12.40;99.90;;;;;;4997003;28;20387;-72
2022/10/15 02:39:23;;;;;;;166.55;56.92;;;12.20;99.90;;;;;;4996378;28;20402;-71
2022/10/15 02:41:49;;;;;;;180.77;56.92;;;12.00;99.90;;;;;;4996640;28;20077;-72
2022/10/15 02:44:15;;;;;;;177.13;57.00;;;12.30;99.90;;;;;;5011686;28;20479;-73
2022/10/15 02:46:41;;;;;;;164.00;56.03;;;12.50;99.90;;;;;;4997041;28;20086;-73
2022/10/15 02:49:07;;;;;;;165.05;54.92;;;12.10;99.90;;;;;;4996704;28;20411;-72
2022/10/15 02:51:34;;;;;;;153.55;52.88;;;12.60;99.90;;;;;;4996460;28;20184;-72
2022/10/15 02:54:04;;;;;;;165.35;55.72;;;12.10;99.90;;;;;;4996500;28;20042;-72
2022/10/15 02:56:30;;;;;;;173.23;56.08;;;12.00;99.90;;;;;;5001501;28;20069;-72
2022/10/15 02:58:56;;;;;;;170.65;52.60;;;12.30;99.90;;;;;;5001240;28;20081;-72
2022/10/15 03:01:22;;;;;;;165.40;55.55;;;12.30;99.90;;;;;;5000957;28;20070;-71
2022/10/15 03:03:47;;;;;;;156.40;54.53;;;12.20;99.90;;;;;;4999921;28;20046;-72
2022/10/15 03:06:14;;;;;;;161.07;52.88;;;11.90;99.90;;;;;;5001256;28;20113;-72
2022/10/15 03:08:41;;;;;;;155.38;53.97;;;12.20;99.90;;;;;;4999883;28;20549;-73
2022/10/15 03:11:07;;;;;;;157.98;53.05;;;12.30;99.90;;;;;;4999464;28;20057;-72
2022/10/15 03:13:37;;;;;;;155.05;52.22;;;12.30;99.90;;;;;;4999954;28;20486;-72
2022/10/15 03:16:05;;;;;;;157.93;52.92;;;11.90;99.90;;;;;;5000609;28;20048;-72
2022/10/15 03:18:31;;;;;;;189.60;55.65;;;12.60;99.90;;;;;;4996312;28;20053;-72
2022/10/15 03:20:57;;;;;;;163.45;54.83;;;12.50;99.90;;;;;;4995819;28;20139;-71
2022/10/15 03:23:23;;;;;;;168.85;54.17;;;12.40;99.90;;;;;;4995867;28;20117;-71
2022/10/15 03:25:49;;;;;;;152.50;51.08;;;12.30;99.90;;;;;;4996189;28;20455;-72
2022/10/15 03:28:15;;;;;;;154.43;51.50;;;12.20;99.90;;;;;;4995736;28;20062;-72
2022/10/15 03:30:42;;;;;;;;;;;12.40;99.90;;;;;;4996122;28;20050;-71
2022/10/15 03:33:07;;;;;;;172.10;51.63;;;12.50;99.90;;;;;;4995823;28;20461;-71
2022/10/15 03:35:33;;;;;;;168.18;53.35;;;12.50;99.90;;;;;;4995636;28;20133;-71
2022/10/15 03:37:59;;;;;;;164.05;52.45;;;12.60;99.90;;;;;;4995545;28;20062;-71
2022/10/15 03:40:25;;;;;;;174.70;54.03;;;12.40;99.90;;;;;;4995501;28;20082;-71
2022/10/15 03:42:51;;;;;;;179.35;55.13;;;12.00;99.90;;;;;;4995490;28;20073;-71
2022/10/15 03:45:20;;;;;;;173.48;54.22;;;12.40;99.90;;;;;;4995343;28;20116;-71
2022/10/15 03:47:45;;;;;;;159.13;52.42;;;12.20;99.90;;;;;;4995445;28;20136;-71
2022/10/15 03:50:12;;;;;;;169.45;51.85;;;12.40;99.90;;;;;;4994969;28;20468;-72
2022/10/15 03:52:38;;;;;;;152.00;51.78;;;12.40;99.90;;;;;;4994970;28;20046;-71
2022/10/15 03:55:04;;;;;;;;;;;12.50;99.90;;;;;;4995854;28;20096;-72
2022/10/15 03:57:29;;;;;;;146.45;51.10;;;12.50;99.90;;;;;;4995083;28;19926;-72
2022/10/15 03:59:55;;;;;;;160.68;52.55;;;12.40;99.90;;;;;;4995165;28;20089;-72
2022/10/15 04:02:21;;;;;;;167.65;53.35;;;12.40;99.90;;;;;;4995058;28;20162;-72
2022/10/15 04:04:47;;;;;;;142.07;51.78;;;12.70;99.90;;;;;;4995002;28;20124;-72
2022/10/15 04:07:12;;;;;;;150.55;51.95;;;12.40;99.90;;;;;;4993690;28;20042;-72
2022/10/15 04:09:38;;;;;;;152.52;51.45;;;12.30;99.90;;;;;;4994857;28;20132;-72
2022/10/15 04:12:04;;;;;;;141.88;52.38;;;12.80;99.90;;;;;;4994888;28;20089;-72
2022/10/15 04:14:30;;;;;;;148.00;53.67;;;12.30;99.90;;;;;;4995271;28;20047;-72
2022/10/15 04:16:57;;;;;;;150.95;53.13;;;12.40;99.90;;;;;;4995449;28;20490;-71
2022/10/15 04:19:23;;;;;;;146.88;54.70;;;12.20;99.90;;;;;;4994403;28;20053;-72
2022/10/15 04:21:49;;;;;;;145.90;53.05;;;12.60;99.90;;;;;;4995168;28;20042;-71
2022/10/15 04:24:15;;;;;;;149.82;52.63;;;12.10;99.90;;;;;;4993399;28;20042;-72
2022/10/15 04:26:40;;;;;;;154.23;51.17;;;12.50;99.90;;;;;;4994631;28;20100;-71
2022/10/15 04:29:06;;;;;;;149.27;53.25;;;12.90;99.90;;;;;;4992991;28;20235;-71
2022/10/15 04:31:32;;;;;;;152.07;50.67;;;12.40;99.90;;;;;;4993483;28;20054;-71
2022/10/15 04:33:58;;;;;;;;;;;12.60;99.90;;;;;;4994886;28;20042;-72
2022/10/15 04:36:23;;;;;;;152.50;53.03;;;12.40;99.90;;;;;;4993919;28;19943;-72
2022/10/15 04:38:49;;;;;;;156.40;53.95;;;12.80;99.90;;;;;;4995057;28;20047;-71
2022/10/15 04:41:15;;;;;;;143.95;52.53;;;12.60;99.90;;;;;;4994315;28;20049;-71
2022/10/15 04:43:41;;;;;;;151.43;53.50;;;13.20;99.90;;;;;;4994782;28;20463;-71
2022/10/15 04:46:08;;;;;;;140.00;52.25;;;12.00;99.90;;;;;;4994510;28;20052;-71
2022/10/15 04:48:35;;;;;;;144.48;52.35;;;12.30;99.90;;;;;;4977058;28;20519;-72
2022/10/15 04:51:06;;;;;;;143.18;51.72;;;12.00;99.90;;;;;;4994597;28;20046;-72
2022/10/15 04:53:32;;;;;;;142.68;52.15;;;12.50;99.90;;;;;;4994581;28;20043;-71
2022/10/15 04:56:06;;;;;;;141.90;50.92;;;12.40;99.90;;;;;;4994128;28;20042;-71
2022/10/15 04:58:33;;;;;;;138.55;51.85;;;12.20;99.90;;;;;;4994055;28;20047;-72
2022/10/15 05:01:07;;;;;;;145.15;52.35;;;12.10;99.90;;;;;;4994055;28;20061;-72
2022/10/15 05:03:34;;;;;;;129.50;50.08;;;12.30;99.90;;;;;;4993669;28;20038;-72
2022/10/15 05:06:01;;;;;;;125.32;49.88;;;13.40;99.90;;;;;;4993989;28;20050;-71
2022/10/15 05:08:28;;;;;;;136.55;50.70;;;12.30;99.90;;;;;;4993922;28;20077;-72
2022/10/15 05:10:54;;;;;;;134.43;50.65;;;12.30;99.90;;;;;;4992822;28;20039;-71
2022/10/15 05:13:20;;;;;;;138.95;50.50;;;12.00;99.90;;;;;;4993863;28;20039;-72
2022/10/15 05:15:45;;;;;;;132.60;50.08;;;12.10;99.90;;;;;;4993894;28;20537;-72
2022/10/15 05:18:11;;;;;;;134.70;47.90;;;12.10;99.90;;;;;;4993926;28;20042;-71
2022/10/15 05:20:37;;;;;;;143.70;50.70;;;12.40;99.90;;;;;;4994408;28;20531;-72
2022/10/15 05:23:03;;;;;;;143.60;49.75;;;12.60;99.90;;;;;;4994233;28;20443;-71
2022/10/15 05:25:28;;;;;;;;;;;12.00;99.90;;;;;;4994333;28;20051;-70
2022/10/15 05:27:54;;;;;;;143.80;49.70;;;12.10;99.90;;;;;;4993263;28;19922;-71
2022/10/15 05:30:20;;;;;;;156.30;49.90;;;12.10;99.90;;;;;;4993841;28;20108;-71
2022/10/15 05:32:51;;;;;;;160.50;51.08;;;12.10;99.90;;;;;;4993915;28;20050;-72
2022/10/15 05:35:17;;;;;;;155.45;52.45;;;12.00;99.90;;;;;;4993761;28;20517;-72
2022/10/15 05:37:43;;;;;;;164.95;53.30;;;12.50;99.90;;;;;;4993742;28;20046;-71
2022/10/15 05:40:09;;;;;;;149.98;51.72;;;12.20;99.90;;;;;;4993764;28;20046;-72
2022/10/15 05:42:35;;;;;;;160.32;53.75;;;12.20;99.90;;;;;;4993643;28;20082;-73
2022/10/15 05:45:00;;;;;;;165.63;54.35;;;12.20;99.90;;;;;;4994118;28;20078;-72
2022/10/15 05:47:26;;;;;;;152.25;54.90;;;12.10;99.90;;;;;;4993606;28;20122;-72
2022/10/15 05:49:52;;;;;;;153.55;53.88;;;12.10;99.90;;;;;;4992547;28;20082;-72
2022/10/15 05:52:17;;;;;;;164.02;55.28;;;12.40;99.90;;;;;;4992594;28;20042;-72
2022/10/15 05:54:43;;;;;;;170.88;55.80;;;12.30;99.90;;;;;;4993551;28;20050;-72
2022/10/15 05:57:08;;;;;;;153.20;53.67;;;12.40;99.90;;;;;;4992528;28;20058;-72
2022/10/15 05:59:34;;;;;;;158.55;54.17;;;12.20;99.90;;;;;;4993981;28;20046;-72
2022/10/15 06:02:00;;;;;;;154.15;54.67;;;12.00;99.90;;;;;;4993498;28;20422;-73
2022/10/15 06:04:26;;;;;;;175.00;53.78;;;12.30;99.90;;;;;;4993387;28;20489;-72
2022/10/15 06:06:51;;;;;;;151.45;53.83;;;12.50;99.90;;;;;;4992213;28;20057;-73
2022/10/15 06:09:17;;;;;;;167.73;55.72;;;12.20;99.90;;;;;;4993444;28;20081;-72
2022/10/15 06:11:43;;;;;;;175.65;56.75;;;12.10;99.90;;;;;;4992634;28;20057;-71
2022/10/15 06:14:08;;;;;;;178.98;54.53;;;12.30;99.90;;;;;;4995006;28;20053;-73
2022/10/15 06:16:34;;;;;;;160.93;55.50;;;12.50;99.90;;;;;;4996410;28;20042;-72
2022/10/15 06:19:00;;;;;;;161.05;55.05;;;12.50;99.90;;;;;;4996908;28;20089;-72
2022/10/15 06:21:25;;;;;;;159.90;55.47;;;12.10;99.90;;;;;;4996846;28;20137;-72
2022/10/15 06:23:51;;;;;;;155.50;53.95;;;12.30;99.90;;;;;;4997518;28;20050;-72
2022/10/15 06:26:17;;;;;;;154.98;54.85;;;13.30;99.90;;;;;;4997261;28;20558;-72
2022/10/15 06:28:42;;;;;;;155.02;54.88;;;12.30;99.90;;;;;;4996933;28;20491;-72
2022/10/15 06:31:08;;;;;;;158.77;53.28;;;12.40;99.90;;;;;;4997099;28;20483;-72
2022/10/15 06:33:35;;;;;;;176.90;55.78;;;12.30;99.90;;;;;;4996098;28;20046;-74
2022/10/15 06:36:02;;;;;;;157.10;52.78;;;12.50;99.90;;;;;;4996623;28;20050;-72
2022/10/15 06:38:27;;;;;;;150.43;55.25;;;12.50;99.90;;;;;;4996533;28;20152;-72
2022/10/15 06:40:53;;;;;;;165.52;54.50;;;12.70;99.90;;;;;;4996537;28;20038;-71
2022/10/15 06:43:19;;;;;;;156.40;53.83;;;12.30;99.90;;;;;;4996697;28;20125;-71
2022/10/15 06:45:44;;;;;;;158.40;53.42;;;12.20;99.90;;;;;;4996530;28;20475;-72
2022/10/15 06:48:10;;;;;;;157.35;55.15;;;12.20;99.90;;;;;;4996396;28;20046;-72
2022/10/15 06:50:37;;;;;;;166.15;55.65;;;12.30;99.90;;;;;;4996548;28;20050;-72
2022/10/15 06:53:03;;;;;;;169.25;56.50;;;12.60;99.90;;;;;;4996085;28;20046;-72
2022/10/15 06:55:29;;;;;;;166.25;56.67;;;12.30;99.90;;;;;;4996312;28;20046;-73
2022/10/15 06:57:55;;;;;;;168.02;56.70;;;12.40;99.90;;;;;;4996247;28;20503;-72
2022/10/15 07:00:22;;;;;;;157.13;56.80;;;11.90;99.90;;;;;;4996110;28;20053;-73
2022/10/15 07:02:49;;;;;;;191.27;60.22;;;12.30;99.90;;;;;;4996088;28;20043;-72
2022/10/15 07:05:14;;;;;;;;;;;13.10;99.90;;;;;;4997137;28;20082;-73
2022/10/15 07:07:40;;;;;;;165.30;57.97;;;12.30;99.90;;;;;;4996495;28;19929;-71
2022/10/15 07:10:06;;;;;;;178.65;59.75;;;12.70;99.90;;;;;;4994970;28;20501;-72
2022/10/15 07:12:32;;;;;;;;;;;12.40;99.90;;;;;;4996206;28;20034;-72
2022/10/15 07:14:57;;;;;;;162.13;59.92;;;12.40;99.90;;;;;;4996727;28;19921;-72
2022/10/15 07:17:23;;;;;;;188.85;64.05;;;12.30;99.90;;;;;;4995941;28;20498;-72
2022/10/15 07:19:49;;;;;;;165.73;60.55;;;12.50;99.90;;;;;;4995931;28;20089;-73
2022/10/15 07:22:14;;;;;;;170.80;62.97;;;12.50;99.90;;;;;;4995700;28;20077;-72
2022/10/15 07:24:40;;;;;;;176.82;60.33;;;12.60;99.90;;;;;;4995388;28;20042;-73
2022/10/15 07:27:06;;;;;;;168.85;58.92;;;12.40;99.90;;;;;;4994927;28;20153;-72
2022/10/15 07:29:31;;;;;;;171.10;58.78;;;12.40;99.90;;;;;;4994315;28;20054;-72
2022/10/15 07:31:58;;;;;;;168.35;59.80;;;12.20;99.90;;;;;;4995634;28;20120;-73
2022/10/15 07:34:24;;;;;;;176.02;63.00;;;12.50;99.90;;;;;;4995667;28;20069;-72
2022/10/15 07:36:49;;;;;;;176.95;61.63;;;12.60;99.90;;;;;;4994539;28;20042;-72
2022/10/15 07:39:17;;;;;;;170.40;61.47;;;12.10;99.90;;;;;;4995184;28;20097;-73
2022/10/15 07:41:43;;;;;;;179.50;61.17;;;12.70;99.90;;;;;;4995393;28;20544;-73
2022/10/15 07:44:09;;;;;;;173.50;61.33;;;12.90;99.90;;;;;;4996104;28;20133;-73
2022/10/15 07:46:35;;;;;;;178.65;61.45;;;13.00;99.90;;;;;;4995423;28;20474;-72
2022/10/15 07:49:00;;;;;;;165.70;62.10;;;12.90;99.90;;;;;;4995766;28;20050;-74
2022/10/15 07:51:26;;;;;;;166.77;61.78;;;12.70;99.90;;;;;;4995301;28;20054;-73
2022/10/15 07:53:52;;;;;;;165.20;62.42;;;13.00;99.90;;;;;;4995233;28;20054;-73
2022/10/15 07:56:18;;;;;;;170.95;62.00;;;12.80;99.90;;;;;;4978143;28;20112;-72
2022/10/15 07:58:50;;;;;;;;;;;13.00;99.90;;;;;;4995619;28;20449;-73
2022/10/15 08:01:17;;;;;;;179.40;60.50;;;13.20;99.90;;;;;;4996272;28;19944;-73
2022/10/15 08:03:43;;;;;;;185.73;63.80;;;13.20;99.90;;;;;;4995045;28;20130;-74
2022/10/15 08:06:08;;;;;;;189.60;62.42;;;12.80;99.90;;;;;;4994952;28;20042;-73
2022/10/15 08:08:35;;;;;;;184.52;59.30;;;13.20;99.90;;;;;;4994765;28;20049;-73
2022/10/15 08:11:08;;;;;;;184.63;58.33;;;13.10;99.90;;;;;;4995110;28;20054;-74
2022/10/15 08:13:34;;;;;;;180.00;58.30;;;13.10;99.90;;;;;;4994803;28;20129;-73
2022/10/15 08:16:00;;;;;;;188.00;57.95;;;12.80;99.90;;;;;;4994912;28;20126;-72
2022/10/15 08:18:26;;;;;;;177.80;56.28;;;12.80;99.90;;;;;;4994822;28;20399;-73
2022/10/15 08:20:51;;;;;;;;;;;13.30;99.90;;;;;;4995169;28;20093;-72
2022/10/15 08:23:18;;;;;;;176.20;54.88;;;13.40;99.90;;;;;;4994737;28;19929;-71
2022/10/15 08:25:44;;;;;;;179.95;56.67;;;13.00;99.90;;;;;;4994643;28;20051;-72
2022/10/15 08:28:10;;;;;;;180.48;56.45;;;13.40;99.90;;;;;;4995180;28;20379;-73
2022/10/15 08:30:36;;;;;;;195.50;57.78;;;13.30;99.90;;;;;;4994791;28;20050;-73
2022/10/15 08:33:02;;;;;;;172.20;55.35;;;13.00;99.90;;;;;;4994428;28;20042;-73
2022/10/15 08:35:28;;;;;;;175.55;56.33;;;13.20;99.90;;;;;;4993276;28;20042;-73
2022/10/15 08:37:54;;;;;;;165.88;55.47;;;13.40;99.90;;;;;;4994230;28;20074;-74
2022/10/15 08:40:21;;;;;;;185.00;59.03;;;13.50;99.90;;;;;;4994320;28;20053;-77
2022/10/15 08:42:49;;;;;;;175.23;58.03;;;13.40;99.90;;;;;;4994592;28;20050;-73
2022/10/15 08:45:21;;;;;;;175.98;61.33;;;13.30;99.90;;;;;;4994291;28;20052;-73
2022/10/15 08:48:11;;;;;;;167.95;58.53;;;13.60;99.90;;;;;;4994404;28;20097;-73
2022/10/15 08:50:44;;;;;;;166.35;58.38;;;13.30;99.90;;;;;;4994288;28;20180;-73
2022/10/15 08:53:17;;;;;;;154.50;57.15;;;13.30;99.90;;;;;;4994927;28;20043;-74
2022/10/15 08:55:46;;;;;;;151.88;54.90;;;13.30;99.90;;;;;;4994447;28;20046;-72
2022/10/15 08:58:29;;;;;;;141.82;54.63;;;13.40;99.90;;;;;;4993920;28;20054;-72
2022/10/15 09:01:01;;;;;;;141.43;53.58;;;13.40;99.90;;;;;;4993331;28;20058;-73
2022/10/15 09:03:53;;;;;;;128.25;50.95;;;13.30;99.90;;;;;;4994133;28;20468;-72
2022/10/15 09:06:36;;;;;;;126.82;50.03;;;13.40;99.90;;;;;;4993030;28;20054;-74
2022/10/15 09:09:29;;;;;;;137.25;52.15;;;13.50;99.90;;;;;;4994210;28;20431;-73
2022/10/15 09:12:14;;;;;;;127.53;49.42;;;13.40;99.90;;;;;;4993922;28;20161;-72
2022/10/15 09:14:43;;;;;;;126.65;52.42;;;13.70;99.90;;;;;;4993983;28;20050;-73
2022/10/15 09:17:23;;;;;;;119.30;50.50;;;13.90;99.90;;;;;;4993986;28;20050;-71
2022/10/15 09:19:55;;;;;;;111.88;49.17;;;13.60;99.90;;;;;;4993064;28;20054;-73
2022/10/15 09:22:24;;;;;;;116.38;47.80;;;13.50;99.90;;;;;;4994298;28;20440;-72
2022/10/15 09:24:50;;;;;;;115.30;48.40;;;13.80;99.90;;;;;;4993936;28;20146;-74
2022/10/15 09:27:37;;;;;;;98.15;44.35;;;13.90;99.90;;;;;;4994011;28;20046;-72
2022/10/15 09:30:25;;;;;;;109.15;45.13;;;13.80;99.90;;;;;;4994351;28;20069;-73
2022/10/15 09:33:14;;;;;;;94.45;43.30;;;14.00;99.90;;;;;;4994061;28;20042;-73
2022/10/15 09:35:50;;;;;;;99.43;42.35;;;14.00;99.90;;;;;;4992376;28;20058;-73
2022/10/15 09:38:15;;;;;;;105.10;43.93;;;13.70;99.90;;;;;;4994429;28;20424;-71
2022/10/15 09:40:56;;;;;;;100.55;44.95;;;13.80;99.90;;;;;;4993550;28;20046;-71
2022/10/15 09:43:29;;;;;;;95.82;43.05;;;13.70;99.90;;;;;;4993489;28;20100;-72
2022/10/15 09:45:56;;;;;;;97.22;42.17;;;13.80;99.90;;;;;;4993712;28;20454;-72
2022/10/15 09:48:24;;;;;;;99.40;43.42;;;14.00;99.90;;;;;;4994145;28;20054;-74
2022/10/15 09:51:02;;;;;;;112.28;45.63;;;13.90;99.90;;;;;;4997506;28;20053;-72
2022/10/15 09:53:46;;;;;;;98.05;43.15;;;13.60;99.90;;;;;;4997928;28;20034;-72
2022/10/15 09:56:11;;;;;;;100.07;43.65;;;13.80;99.90;;;;;;4997413;28;20053;-72
2022/10/15 09:58:53;;;;;;;93.78;41.80;;;13.40;99.90;;;;;;4996143;28;20482;-70
2022/10/15 10:01:24;;;;;;;90.15;42.03;;;13.80;99.90;;;;;;4997338;28;20073;-72
2022/10/15 10:03:52;;;;;;;84.53;40.42;;;13.90;99.90;;;;;;4998087;28;20073;-73
2022/10/15 10:06:20;;;;;;;86.47;40.40;;;13.80;99.90;;;;;;4997082;28;20051;-69
2022/10/15 10:08:56;;;;;;;88.97;40.65;;;13.90;99.90;;;;;;4997294;28;20042;-70
2022/10/15 10:11:24;;;;;;;85.13;39.95;;;14.30;99.90;;;;;;4997493;28;20224;-71
2022/10/15 10:13:57;;;;;;;77.53;41.13;;;14.20;99.90;;;;;;4996926;28;20077;-71
2022/10/15 10:16:23;;;;;;;84.88;38.60;;;14.20;99.90;;;;;;4996505;28;20471;-73
2022/10/15 10:19:09;;;;;;;66.70;35.38;;;14.10;99.90;;;;;;4996999;28;20042;-70
2022/10/15 10:21:38;;;;;;;60.25;33.40;;;14.30;99.90;;;;;;4995955;28;20050;-72
2022/10/15 10:24:29;;;;;;;69.55;34.15;;;14.00;99.90;;;;;;4996896;28;20112;-72
2022/10/15 10:26:56;;;;;;;58.15;31.75;;;13.70;99.90;;;;;;4996803;28;20467;-72
2022/10/15 10:29:23;;;;;;;60.85;31.65;;;13.90;99.90;;;;;;4996818;28;20507;-72
2022/10/15 10:31:50;;;;;;;61.05;31.58;;;14.00;99.90;;;;;;4996772;28;20093;-71
2022/10/15 10:34:34;;;;;;;66.97;33.50;;;14.10;99.90;;;;;;4996784;28;20043;-71
2022/10/15 10:37:04;;;;;;;64.68;33.25;;;14.00;99.90;;;;;;4996973;28;20344;-73
2022/10/15 10:39:35;;;;;;;55.15;29.33;;;14.20;99.90;;;;;;4995266;28;20487;-72
2022/10/15 10:42:05;;;;;;;51.22;27.73;;;14.10;99.90;;;;;;4996660;28;20046;-71
2022/10/15 10:44:37;;;;;;;58.60;28.98;;;14.30;99.90;;;;;;4996715;28;20045;-71
2022/10/15 10:47:16;;;;;;;55.17;29.05;;;14.50;99.90;;;;;;4996388;28;20357;-71
2022/10/15 10:49:45;;;;;;;57.85;30.70;;;14.40;99.90;;;;;;4996545;28;20105;-71
2022/10/15 10:52:25;;;;;;;61.78;30.08;;;14.30;99.90;;;;;;4996560;28;20460;-70
2022/10/15 10:55:01;;;;;;;58.53;30.23;;;14.40;99.90;;;;;;4997013;28;20089;-72
2022/10/15 10:57:34;;;;;;;56.25;29.55;;;14.50;99.90;;;;;;4996349;28;20387;-70
2022/10/15 11:00:03;;;;;;;53.05;28.02;;;14.80;99.90;;;;;;4996652;28;20038;-72
2022/10/15 11:02:32;;;;;;;58.22;29.13;;;14.70;99.90;;;;;;4996264;28;20046;-71
2022/10/15 11:04:57;;;;;;;49.28;26.98;;;14.20;99.90;;;;;;4996238;28;20061;-71
2022/10/15 11:07:29;;;;;;;52.28;27.30;;;14.40;99.90;;;;;;4996364;28;20050;-69
2022/10/15 11:10:16;;;;;;;51.15;25.77;;;14.30;99.90;;;;;;4994991;28;20399;-71
2022/10/15 11:13:15;;;;;;;49.58;25.85;;;14.30;99.90;;;;;;4996055;28;20101;-70
2022/10/15 11:16:05;;;;;;;47.72;25.08;;;14.60;99.90;;;;;;4995004;28;20054;-72
2022/10/15 11:18:44;;;;;;;58.60;25.33;;;14.40;99.90;;;;;;4996021;28;20402;-71
2022/10/15 11:21:43;;;;;;;43.45;22.50;;;14.30;99.90;;;;;;4994823;28;20054;-70
2022/10/15 11:24:48;;;;;;;39.55;21.60;;;14.40;99.90;;;;;;4995921;28;20062;-70
2022/10/15 11:27:22;;;;;;;38.58;21.65;;;14.40;99.90;;;;;;4994212;28;20539;-69
2022/10/15 11:30:02;;;;;;;37.38;19.63;;;14.40;99.90;;;;;;4996363;28;20076;-71
2022/10/15 11:32:45;;;;;;;36.20;19.98;;;14.50;99.90;;;;;;4996409;28;20093;-71
2022/10/15 11:35:23;;;;;;;34.15;18.83;;;14.50;99.90;;;;;;4996022;28;20109;-71
2022/10/15 11:38:13;;;;;;;34.60;19.63;;;14.70;99.90;;;;;;4995711;28;20101;-72
2022/10/15 11:41:00;;;;;;;30.40;17.60;;;14.90;99.90;;;;;;4995580;28;20108;-72
2022/10/15 11:43:52;;;;;;;27.00;17.58;;;15.00;99.90;;;;;;4995546;28;20100;-72
2022/10/15 11:46:57;;;;;;;28.58;17.75;;;15.30;99.90;;;;;;4996030;28;20101;-71
2022/10/15 11:49:32;;;;;;;28.98;17.02;;;15.20;99.90;;;;;;4994775;28;20534;-71
2022/10/15 11:52:10;;;;;;;25.90;15.90;;;15.40;99.90;;;;;;4995715;28;20050;-73
2022/10/15 11:54:44;;;;;;;33.85;17.02;;;15.20;99.90;;;;;;4995984;28;20050;-72
2022/10/15 11:57:17;;;;;;;23.27;15.45;;;15.50;99.90;;;;;;4995872;28;20053;-70
2022/10/15 12:00:02;;;;;;;24.90;16.27;;;15.30;99.90;;;;;;4995265;28;20410;-71
2022/10/15 12:02:36;;;;;;;24.33;15.30;;;15.60;99.90;;;;;;4994991;28;20518;-71
2022/10/15 12:05:12;;;;;;;26.95;16.17;;;15.60;99.90;;;;;;4995044;28;20046;-72
2022/10/15 12:07:47;;;;;;;19.85;14.40;;;15.60;99.90;;;;;;4995984;28;20415;-71
2022/10/15 12:10:12;;;;;;;34.00;15.52;;;15.50;99.90;;;;;;4995595;28;20046;-72
2022/10/15 12:12:58;;;;;;;;;;;15.80;99.90;;;;;;4994830;28;20042;-69
2022/10/15 12:15:44;;;;;;;23.13;14.40;;;15.70;99.90;;;;;;4994235;28;19932;-71
2022/10/15 12:18:36;;;;;;;20.88;14.82;;;15.80;99.90;;;;;;4994738;28;20061;-70
2022/10/15 12:21:01;;;;;;;21.58;14.05;;;15.60;99.90;;;;;;4994846;28;20050;-70
2022/10/15 12:23:33;;;;;;;;;;;15.80;99.90;;;;;;4995205;28;20042;-71
2022/10/15 12:25:59;;;;;;;24.27;14.52;;;16.00;99.90;;;;;;4994191;28;19929;-70
2022/10/15 12:28:26;;;;;;;;;;;15.60;99.90;;;;;;4994914;28;20046;-73
2022/10/15 12:30:54;;;;;;;20.63;14.30;;;16.00;99.90;;;;;;5009853;28;19928;-70
2022/10/15 12:33:43;;;;;;;18.80;13.07;;;15.90;99.90;;;;;;4994411;28;20043;-72
2022/10/15 12:36:18;;;;;;;22.35;13.73;;;16.30;99.90;;;;;;4994644;28;20046;-69
2022/10/15 12:38:59;;;;;;;18.35;13.40;;;16.60;99.90;;;;;;4994519;28;20097;-70
2022/10/15 12:41:41;;;;;;;18.52;12.93;;;16.40;99.90;;;;;;4994557;28;20130;-70
2022/10/15 12:44:27;;;;;;;20.88;13.20;;;16.50;99.90;;;;;;4994085;28;20118;-71